Time;durP1;ratioP1;P1;durP2;ratioP2;P2;SDS_P1;SDS_P2;PMS_P1;PMS_P2;Temp;Humidity;BMP_temperature;BMP_pressure;BME280_temperature;BME280_humidity;BME280_pressure;Samples;Min_cycle;Max_cycle;Signal;HPM_P1;HPM_P2
2022/11/04 00:01:37;;;;;;;4.30;0.70;;;11.90;99.90;;;;;;5068432;28;20877;-51
2022/11/04 00:04:02;;;;;;;5.30;0.50;;;11.90;99.90;;;;;;5069406;28;20880;-51
2022/11/04 00:06:28;;;;;;;4.87;0.80;;;11.90;99.90;;;;;;5069223;28;20412;-54
2022/11/04 00:08:56;;;;;;;4.50;0.70;;;11.90;99.90;;;;;;5068520;28;20394;-52
2022/11/04 00:14:08;;;;;;;4.40;0.70;;;11.80;99.90;;;;;;5070902;28;20748;-51
2022/11/04 00:19:18;;;;;;;4.40;0.70;;;11.80;99.90;;;;;;5072846;28;20378;-51
2022/11/04 00:29:58;;;;;;;4.30;0.75;;;11.80;99.90;;;;;;5072698;28;20425;-52
2022/11/04 00:35:10;;;;;;;4.50;0.73;;;11.80;99.90;;;;;;5072583;28;20414;-51
2022/11/04 00:37:41;;;;;;;5.20;0.90;;;11.90;99.90;;;;;;5071819;28;20407;-51
2022/11/04 00:40:09;;;;;;;4.40;0.70;;;11.80;99.90;;;;;;5072558;28;20380;-51
2022/11/04 00:42:35;;;;;;;4.20;0.80;;;11.80;1.00;;;;;;5071628;28;20386;-52
2022/11/04 00:45:01;;;;;;;8.80;0.70;;;11.80;1.00;;;;;;5072388;28;20375;-52
2022/11/04 00:47:27;;;;;;;4.75;1.08;;;11.80;1.00;;;;;;5072009;28;20371;-52
2022/11/04 00:49:53;;;;;;;4.95;0.75;;;12.00;1.00;;;;;;5071177;28;20912;-52
2022/11/04 00:52:18;;;;;;;4.60;0.73;;;12.00;1.00;;;;;;5072475;28;20408;-51
2022/11/04 00:54:44;;;;;;;5.60;0.88;;;12.00;16.00;;;;;;5071611;28;20380;-51
2022/11/04 00:57:11;;;;;;;4.20;0.60;;;12.00;99.90;;;;;;5072021;28;20594;-52
2022/11/04 00:59:37;;;;;;;4.10;0.80;;;12.00;1.00;;;;;;5071817;28;20438;-52
2022/11/04 01:02:03;;;;;;;5.10;0.90;;;12.00;1.00;;;;;;5072039;28;20387;-52
2022/11/04 01:04:28;;;;;;;4.95;0.80;;;12.00;99.90;;;;;;5072025;28;20388;-54
2022/11/04 01:06:54;;;;;;;4.18;0.70;;;11.80;99.90;;;;;;5071577;28;20775;-51
2022/11/04 01:09:20;;;;;;;4.90;1.00;;;11.60;1.00;;;;;;5072113;28;20916;-51
2022/11/04 01:11:45;;;;;;;5.20;0.90;;;11.30;99.90;;;;;;5071215;28;20384;-51
2022/11/04 01:14:11;;;;;;;4.63;0.80;;;11.20;99.90;;;;;;5071891;28;20427;-51
2022/11/04 01:16:37;;;;;;;4.70;0.80;;;11.20;99.90;;;;;;5053120;28;20435;-51
2022/11/04 01:19:03;;;;;;;4.32;0.70;;;11.30;99.90;;;;;;5071951;28;20411;-51
2022/11/04 01:21:29;;;;;;;4.10;0.63;;;11.30;30.50;;;;;;5071758;28;20380;-54
2022/11/04 01:23:54;;;;;;;5.53;0.70;;;11.20;99.90;;;;;;5053342;28;20402;-51
2022/11/04 01:26:22;;;;;;;4.63;0.95;;;11.10;99.90;;;;;;5070485;28;20525;-51
2022/11/04 01:28:48;;;;;;;4.17;0.80;;;11.20;99.90;;;;;;5071299;28;20460;-52
2022/11/04 01:31:23;;;;;;;4.97;0.70;;;11.20;99.90;;;;;;5071423;28;20384;-52
2022/11/04 01:33:50;;;;;;;5.40;0.90;;;11.20;99.90;;;;;;5070777;28;20408;-51
2022/11/04 01:36:17;;;;;;;4.30;0.70;;;11.10;99.90;;;;;;5071408;28;20445;-52
2022/11/04 01:38:42;;;;;;;3.70;0.45;;;11.30;99.90;;;;;;5070651;28;20384;-51
2022/11/04 01:41:15;;;;;;;4.30;0.70;;;11.30;99.90;;;;;;5071331;28;20380;-52
2022/11/04 01:43:49;;;;;;;4.87;0.70;;;11.30;99.90;;;;;;5070459;28;20749;-51
2022/11/04 01:46:37;;;;;;;3.90;0.40;;;11.10;99.90;;;;;;5071471;28;20395;-52
2022/11/04 01:49:17;;;;;;;3.90;0.50;;;11.00;99.90;;;;;;5071404;28;20410;-53
2022/11/04 01:51:45;;;;;;;4.30;0.60;;;11.00;99.90;;;;;;5070677;28;20383;-53
2022/11/04 01:54:11;;;;;;;4.95;0.80;;;10.90;99.90;;;;;;5070990;28;20714;-53
2022/11/04 01:56:40;;;;;;;4.25;0.70;;;10.90;99.90;;;;;;5070327;28;20820;-53
2022/11/04 01:59:11;;;;;;;3.90;0.70;;;11.00;99.90;;;;;;5071243;28;20383;-53
2022/11/04 02:01:36;;;;;;;3.72;0.50;;;10.90;99.90;;;;;;5070060;28;20805;-53
2022/11/04 02:06:48;;;;;;;3.92;0.52;;;10.90;94.60;;;;;;5070249;28;20475;-52
2022/11/04 02:09:15;;;;;;;3.80;0.50;;;11.00;60.50;;;;;;5070543;28;20903;-53
2022/11/04 02:14:25;;;;;;;3.80;0.40;;;11.00;1.00;;;;;;5070309;28;20911;-53
2022/11/04 02:16:57;;;;;;;3.80;0.45;;;10.80;1.00;;;;;;5069731;28;20407;-53
2022/11/04 02:19:59;;;;;;;4.00;0.63;;;11.10;1.00;;;;;;5070374;28;20371;-53
2022/11/04 02:22:55;;;;;;;4.70;1.00;;;11.20;99.90;;;;;;5070588;28;20380;-52
2022/11/04 02:25:26;;;;;;;6.70;0.75;;;11.10;99.90;;;;;;5070539;28;20383;-52
2022/11/04 02:28:28;;;;;;;4.40;0.60;;;11.10;99.90;;;;;;5051704;28;20383;-53
2022/11/04 02:31:01;;;;;;;4.18;0.70;;;11.00;99.90;;;;;;5051900;28;20500;-53
2022/11/04 02:33:29;;;;;;;4.60;0.50;;;11.00;99.90;;;;;;5069963;28;20416;-52
2022/11/04 02:36:34;;;;;;;4.22;0.50;;;10.90;99.90;;;;;;5069394;28;20419;-52
2022/11/04 02:39:10;;;;;;;4.60;0.60;;;10.90;99.90;;;;;;4988458;28;20400;-52
2022/11/04 02:42:13;;;;;;;4.03;0.50;;;10.90;99.90;;;;;;5069661;28;20387;-53
2022/11/04 02:45:15;;;;;;;4.00;0.60;;;10.70;99.90;;;;;;5069435;28;20376;-52
2022/11/04 02:47:46;;;;;;;4.57;0.50;;;10.70;99.90;;;;;;5069296;28;20852;-53
2022/11/04 02:50:24;;;;;;;4.45;0.60;;;10.80;99.90;;;;;;5070079;28;20402;-53
2022/11/04 02:53:02;;;;;;;5.20;0.60;;;10.90;39.00;;;;;;5069798;28;20384;-52
2022/11/04 02:55:41;;;;;;;4.07;0.57;;;10.80;1.00;;;;;;5070170;28;20384;-52
2022/11/04 02:58:16;;;;;;;4.20;0.80;;;10.70;1.00;;;;;;5069981;28;20459;-52
2022/11/04 03:00:43;;;;;;;4.20;0.70;;;10.60;95.00;;;;;;5051562;28;20391;-52
2022/11/04 03:03:14;;;;;;;3.97;0.70;;;10.70;35.20;;;;;;5069835;28;20407;-52
2022/11/04 03:05:44;;;;;;;4.28;0.70;;;10.60;90.70;;;;;;5069184;28;20396;-52
2022/11/04 03:08:18;;;;;;;5.50;1.10;;;10.60;97.50;;;;;;5070311;28;20388;-53
2022/11/04 03:10:49;;;;;;;4.50;0.80;;;10.60;1.00;;;;;;5069633;28;20379;-52
2022/11/04 03:13:18;;;;;;;4.80;1.20;;;10.50;1.00;;;;;;5070934;28;20430;-52
2022/11/04 03:16:01;;;;;;;4.80;0.73;;;10.50;1.00;;;;;;5069909;28;20845;-53
2022/11/04 03:18:37;;;;;;;4.10;0.60;;;10.50;99.90;;;;;;5070456;28;20410;-52
2022/11/04 03:21:07;;;;;;;5.15;0.60;;;10.50;99.90;;;;;;5069934;28;20384;-52
2022/11/04 03:23:34;;;;;;;4.40;0.50;;;10.50;99.90;;;;;;5069483;28;20419;-55
2022/11/04 03:26:28;;;;;;;4.45;0.70;;;10.40;99.90;;;;;;5069275;28;20908;-53
2022/11/04 03:29:00;;;;;;;4.33;0.57;;;10.30;99.90;;;;;;5068225;28;20419;-52
2022/11/04 03:31:39;;;;;;;5.78;0.70;;;10.40;99.90;;;;;;5070084;28;20416;-53
2022/11/04 03:34:05;;;;;;;4.93;0.60;;;10.50;99.90;;;;;;5070522;28;20380;-52
2022/11/04 03:36:30;;;;;;;4.90;0.97;;;10.50;99.90;;;;;;5070327;28;20726;-52
2022/11/04 03:38:56;;;;;;;8.00;0.63;;;10.50;1.00;;;;;;5069705;28;20420;-52
2022/11/04 03:41:33;;;;;;;5.90;0.80;;;10.60;1.00;;;;;;5070523;28;20399;-53
2022/11/04 03:43:58;;;;;;;8.83;0.60;;;10.60;99.90;;;;;;5070325;28;20895;-52
2022/11/04 03:46:24;;;;;;;5.20;0.90;;;10.70;99.90;;;;;;5069827;28;20380;-52
2022/11/04 03:48:52;;;;;;;5.70;0.90;;;10.60;97.10;;;;;;5052382;28;20384;-53
2022/11/04 03:51:17;;;;;;;5.60;0.70;;;10.60;1.00;;;;;;5073650;28;20406;-53
2022/11/04 03:53:43;;;;;;;4.10;0.70;;;10.60;99.90;;;;;;5073102;28;20376;-53
2022/11/04 03:56:44;;;;;;;5.63;0.80;;;10.60;99.90;;;;;;5073796;28;20380;-53
2022/11/04 03:59:38;;;;;;;4.25;0.80;;;10.60;1.00;;;;;;5073460;28;20711;-52
2022/11/04 04:02:21;;;;;;;4.50;0.80;;;10.40;1.00;;;;;;5073032;28;20391;-52
2022/11/04 04:05:14;;;;;;;5.10;0.70;;;10.40;1.00;;;;;;5072209;28;20475;-53
2022/11/04 04:07:57;;;;;;;6.20;0.90;;;10.40;1.00;;;;;;5072379;28;20379;-53
2022/11/04 04:10:49;;;;;;;7.70;0.80;;;10.40;1.00;;;;;;5073129;28;20383;-52
2022/11/04 04:13:21;;;;;;;4.38;0.70;;;10.50;1.00;;;;;;5068450;28;20404;-52
2022/11/04 04:16:16;;;;;;;3.85;0.50;;;10.60;99.90;;;;;;5072200;28;20379;-52
2022/11/04 04:18:43;;;;;;;4.93;1.08;;;10.60;99.90;;;;;;5067195;28;20442;-52
2022/11/04 04:21:14;;;;;;;4.70;0.90;;;10.60;99.90;;;;;;5073002;28;20387;-52
2022/11/04 04:29:13;;;;;;;6.25;1.00;;;10.80;5.80;;;;;;5072147;28;20393;-54
2022/11/04 04:31:48;;;;;;;4.30;0.70;;;10.30;99.90;;;;;;5049356;28;20987;-53
2022/11/04 04:34:22;;;;;;;4.80;0.60;;;10.50;99.90;;;;;;5070340;28;20420;-52
2022/11/04 04:36:50;;;;;;;4.80;0.90;;;10.20;1.00;;;;;;5068859;28;20399;-52
2022/11/04 04:44:59;;;;;;;5.15;0.90;;;10.10;99.90;;;;;;5069198;28;20871;-52
2022/11/04 04:47:27;;;;;;;7.10;0.90;;;10.10;1.00;;;;;;5069578;28;20403;-52
2022/11/04 04:49:58;;;;;;;4.70;0.80;;;10.10;1.00;;;;;;5071166;28;21273;-52
2022/11/04 04:52:27;;;;;;;5.20;1.10;;;10.10;49.10;;;;;;5071820;28;20500;-53
2022/11/04 04:54:53;;;;;;;4.90;0.90;;;10.10;1.00;;;;;;5071047;28;20407;-52
2022/11/04 04:57:18;;;;;;;4.70;0.80;;;10.10;99.90;;;;;;5070158;28;20408;-52
2022/11/04 04:59:44;;;;;;;7.25;1.00;;;10.00;1.00;;;;;;5067716;28;20757;-53
2022/11/04 05:02:10;;;;;;;4.20;0.90;;;10.00;1.00;;;;;;5071658;28;20388;-52
2022/11/04 05:04:35;;;;;;;5.00;1.00;;;10.00;1.00;;;;;;5067245;28;20432;-56
2022/11/04 05:07:01;;;;;;;6.90;1.00;;;10.10;99.90;;;;;;5053593;28;20859;-52
2022/11/04 05:09:26;;;;;;;5.70;1.00;;;10.10;99.90;;;;;;5051790;28;20386;-53
2022/11/04 05:11:52;;;;;;;5.60;1.33;;;10.10;99.90;;;;;;5033701;28;20387;-53
2022/11/04 05:14:18;;;;;;;5.10;1.40;;;10.10;99.90;;;;;;5051684;28;20396;-53
2022/11/04 05:16:44;;;;;;;14.38;6.53;;;10.00;1.00;;;;;;5051360;28;20412;-53
2022/11/04 05:19:09;;;;;;;16.17;7.07;;;10.00;1.00;;;;;;5051583;28;20386;-53
2022/11/04 05:21:35;;;;;;;7.55;2.55;;;10.00;34.90;;;;;;5051346;28;20393;-56
2022/11/04 05:24:01;;;;;;;5.40;1.30;;;10.00;99.90;;;;;;5051351;28;20377;-52
2022/11/04 05:26:26;;;;;;;5.30;1.30;;;9.90;96.20;;;;;;5051805;28;20774;-53
2022/11/04 05:28:52;;;;;;;4.90;1.20;;;9.90;99.90;;;;;;5050966;28;20477;-53
2022/11/04 05:31:17;;;;;;;5.20;1.10;;;9.90;99.90;;;;;;5057828;28;20453;-53
2022/11/04 05:33:43;;;;;;;7.38;1.30;;;9.90;10.30;;;;;;5071185;28;20412;-53
2022/11/04 05:36:11;;;;;;;5.30;1.20;;;9.90;1.00;;;;;;5063901;28;20390;-53
2022/11/04 05:38:38;;;;;;;4.80;1.20;;;9.90;1.00;;;;;;5056721;28;20435;-56
2022/11/04 05:41:05;;;;;;;6.40;1.50;;;9.80;1.00;;;;;;5051665;28;20378;-52
2022/11/04 05:43:31;;;;;;;4.80;1.20;;;9.80;99.90;;;;;;5060164;28;20934;-53
2022/11/04 05:46:00;;;;;;;5.50;1.00;;;9.70;1.00;;;;;;5070318;28;21041;-52
2022/11/04 05:48:26;;;;;;;5.80;1.30;;;10.80;1.00;;;;;;5065528;28;20400;-53
2022/11/04 05:50:52;;;;;;;4.90;1.10;;;9.70;1.00;;;;;;5068414;28;20368;-52
2022/11/04 05:53:17;;;;;;;6.20;1.20;;;9.70;1.00;;;;;;5071120;28;20407;-53
2022/11/04 05:55:44;;;;;;;5.90;1.30;;;9.70;1.00;;;;;;5066546;28;20403;-53
2022/11/04 05:58:09;;;;;;;5.57;1.27;;;9.60;25.20;;;;;;5063481;28;20411;-53
2022/11/04 06:00:35;;;;;;;5.28;1.33;;;9.60;99.90;;;;;;5069935;28;20422;-55
2022/11/04 06:03:00;;;;;;;4.80;0.90;;;9.70;99.90;;;;;;5070498;28;20395;-53
2022/11/04 06:05:26;;;;;;;6.47;1.17;;;9.50;87.30;;;;;;5070991;28;20405;-53
2022/11/04 06:07:53;;;;;;;6.50;1.30;;;9.50;66.30;;;;;;5068872;28;20770;-53
2022/11/04 06:10:18;;;;;;;6.47;1.20;;;9.50;19.00;;;;;;5071126;28;20368;-52
2022/11/04 06:12:44;;;;;;;6.43;1.25;;;9.60;1.00;;;;;;5069454;28;20463;-53
2022/11/04 06:15:10;;;;;;;5.10;1.10;;;9.50;14.70;;;;;;5070459;28;20475;-53
2022/11/04 06:17:36;;;;;;;6.30;1.10;;;9.40;69.10;;;;;;5058502;28;20405;-55
2022/11/04 06:20:02;;;;;;;6.30;1.52;;;9.50;1.00;;;;;;5062661;28;20403;-53
2022/11/04 06:22:28;;;;;;;5.20;1.35;;;9.50;1.00;;;;;;5067198;28;20730;-54
2022/11/04 06:24:54;;;;;;;5.50;1.13;;;9.60;1.00;;;;;;5070058;28;20387;-53
2022/11/04 06:27:20;;;;;;;7.80;1.50;;;9.60;1.00;;;;;;5070012;28;20380;-54
2022/11/04 06:29:46;;;;;;;5.00;1.45;;;9.50;99.90;;;;;;5051481;28;20456;-55
2022/11/04 06:32:17;;;;;;;6.55;1.45;;;9.40;1.00;;;;;;5069945;28;20403;-53
2022/11/04 06:34:43;;;;;;;5.43;1.20;;;9.50;1.00;;;;;;5069820;28;20388;-54
2022/11/04 06:37:09;;;;;;;5.40;1.50;;;9.50;99.90;;;;;;5070313;28;20953;-53
2022/11/04 06:39:35;;;;;;;5.40;1.33;;;9.50;99.90;;;;;;5070150;28;20384;-56
2022/11/04 06:42:01;;;;;;;4.75;1.30;;;9.50;99.90;;;;;;5070224;28;20391;-53
2022/11/04 06:44:26;;;;;;;4.70;1.10;;;9.60;99.90;;;;;;5070528;28;20375;-53
2022/11/04 06:46:52;;;;;;;4.97;1.10;;;9.70;99.90;;;;;;5069665;28;20533;-54
2022/11/04 06:49:19;;;;;;;5.80;1.20;;;9.70;99.90;;;;;;5070470;28;20460;-53
2022/11/04 06:51:45;;;;;;;4.73;1.10;;;9.80;99.90;;;;;;5070037;28;20387;-54
2022/11/04 06:54:12;;;;;;;6.65;1.23;;;9.70;86.50;;;;;;5070787;28;20376;-53
2022/11/04 06:56:39;;;;;;;5.40;1.27;;;10.10;99.90;;;;;;5069213;28;21043;-54
2022/11/04 06:59:05;;;;;;;4.50;0.90;;;9.80;1.00;;;;;;5070352;28;20411;-53
2022/11/04 07:01:34;;;;;;;4.60;1.00;;;9.80;1.00;;;;;;5070240;28;20396;-54
2022/11/04 07:04:00;;;;;;;6.37;0.80;;;9.70;1.00;;;;;;5066777;28;20414;-52
2022/11/04 07:06:28;;;;;;;4.43;0.90;;;9.80;1.00;;;;;;5064664;28;20423;-53
2022/11/04 07:08:57;;;;;;;4.65;1.10;;;9.90;1.00;;;;;;5069762;28;20387;-55
2022/11/04 07:11:24;;;;;;;4.63;0.93;;;9.90;99.90;;;;;;5070497;28;20434;-54
2022/11/04 07:13:49;;;;;;;6.15;1.20;;;9.80;1.00;;;;;;5068894;28;20470;-54
2022/11/04 07:16:16;;;;;;;5.45;0.80;;;9.90;1.00;;;;;;5069476;28;20459;-54
2022/11/04 07:18:42;;;;;;;5.95;0.95;;;9.80;1.00;;;;;;5068843;28;20508;-51
2022/11/04 07:21:09;;;;;;;6.10;0.90;;;9.90;1.00;;;;;;5069646;28;20917;-51
2022/11/04 07:23:34;;;;;;;5.70;1.20;;;9.90;1.00;;;;;;5070033;28;20395;-52
2022/11/04 07:26:02;;;;;;;5.00;1.00;;;10.00;77.40;;;;;;5069077;28;20379;-54
2022/11/04 07:28:27;;;;;;;4.32;0.77;;;10.00;75.50;;;;;;5069752;28;20410;-54
2022/11/04 07:30:57;;;;;;;5.33;1.10;;;10.00;37.50;;;;;;5069085;28;20782;-54
2022/11/04 07:33:23;;;;;;;6.60;0.90;;;10.00;99.90;;;;;;5069057;28;20498;-52
2022/11/04 07:35:49;;;;;;;6.10;1.40;;;10.10;45.50;;;;;;5068719;28;20383;-53
2022/11/04 07:38:15;;;;;;;4.60;1.00;;;10.10;1.00;;;;;;5069672;28;20407;-53
2022/11/04 07:40:40;;;;;;;6.97;1.20;;;10.10;99.90;;;;;;5068713;28;20433;-54
2022/11/04 07:43:06;;;;;;;5.00;1.00;;;10.10;99.90;;;;;;5069203;28;20468;-52
2022/11/04 07:45:32;;;;;;;4.30;0.82;;;10.10;99.90;;;;;;5069750;28;20440;-52
2022/11/04 07:47:57;;;;;;;5.60;0.90;;;10.10;99.90;;;;;;5068519;28;20458;-51
2022/11/04 07:50:23;;;;;;;5.70;1.30;;;10.10;99.90;;;;;;5069301;28;20372;-52
2022/11/04 07:52:49;;;;;;;4.60;1.10;;;10.20;1.00;;;;;;5068762;28;20869;-52
2022/11/04 07:55:17;;;;;;;7.10;1.02;;;10.20;1.00;;;;;;5069341;28;20388;-52
2022/11/04 07:57:44;;;;;;;4.30;0.88;;;10.20;1.00;;;;;;5068483;28;20399;-53
2022/11/04 08:00:10;;;;;;;5.90;1.00;;;10.40;1.00;;;;;;5069514;28;20410;-52
2022/11/04 08:02:36;;;;;;;6.10;1.10;;;10.30;1.00;;;;;;5068975;28;20468;-52
2022/11/04 08:05:02;;;;;;;4.22;0.90;;;10.30;99.90;;;;;;5068443;28;20387;-52
2022/11/04 08:07:27;;;;;;;8.18;1.00;;;10.50;99.90;;;;;;5051179;28;20761;-52
2022/11/04 08:09:53;;;;;;;5.10;1.00;;;10.50;99.90;;;;;;5068558;28;20441;-53
2022/11/04 08:12:20;;;;;;;5.00;1.30;;;10.50;99.90;;;;;;5069384;28;20702;-52
2022/11/04 08:14:46;;;;;;;4.90;1.10;;;10.60;99.90;;;;;;5068426;28;20686;-52
2022/11/04 08:17:12;;;;;;;5.88;1.40;;;10.90;99.90;;;;;;5069186;28;20411;-53
2022/11/04 08:19:37;;;;;;;6.57;1.30;;;10.70;1.00;;;;;;5068801;28;20416;-55
2022/11/04 08:22:03;;;;;;;4.13;0.80;;;10.70;1.00;;;;;;5062733;28;20454;-52
2022/11/04 08:24:28;;;;;;;5.65;0.98;;;10.80;99.90;;;;;;5066803;28;20477;-52
2022/11/04 08:26:54;;;;;;;6.27;1.30;;;10.90;99.90;;;;;;5066251;28;20384;-52
2022/11/04 08:29:20;;;;;;;9.20;1.50;;;11.00;74.00;;;;;;5068493;28;20375;-52
2022/11/04 08:31:45;;;;;;;5.00;1.20;;;11.10;1.00;;;;;;5063041;28;20407;-52
2022/11/04 08:34:11;;;;;;;5.00;1.17;;;11.20;1.00;;;;;;5068436;28;20391;-52
2022/11/04 08:36:39;;;;;;;5.80;1.20;;;11.40;99.90;;;;;;5071819;28;20390;-54
2022/11/04 08:39:06;;;;;;;6.40;1.30;;;11.50;24.10;;;;;;5071919;28;20845;-52
2022/11/04 08:41:33;;;;;;;5.90;1.30;;;11.60;99.90;;;;;;5069333;28;20387;-52
2022/11/04 08:43:59;;;;;;;4.55;1.10;;;11.70;99.90;;;;;;5071261;28;20479;-52
2022/11/04 08:46:27;;;;;;;5.25;1.40;;;11.80;1.00;;;;;;5071842;28;20383;-52
2022/11/04 08:48:53;;;;;;;4.75;1.02;;;11.90;99.90;;;;;;5068329;28;20408;-50
2022/11/04 08:51:21;;;;;;;5.30;1.20;;;12.20;1.00;;;;;;5071504;28;20418;-51
2022/11/04 08:53:47;;;;;;;8.77;1.20;;;12.40;1.00;;;;;;5070997;28;20746;-51
2022/11/04 08:56:19;;;;;;;5.45;1.00;;;12.40;99.90;;;;;;5071740;28;20392;-51
2022/11/04 08:58:45;;;;;;;5.35;1.20;;;12.60;99.90;;;;;;5067348;28;20416;-52
2022/11/04 09:01:11;;;;;;;7.20;0.80;;;12.70;29.60;;;;;;5066672;28;20711;-51
2022/11/04 09:03:38;;;;;;;4.90;0.80;;;12.70;1.00;;;;;;5051827;28;20445;-53
2022/11/04 09:06:10;;;;;;;4.80;1.00;;;12.40;1.00;;;;;;5066326;28;20400;-51
2022/11/04 09:08:38;;;;;;;5.63;1.30;;;12.50;1.00;;;;;;5058664;28;20416;-51
2022/11/04 09:11:07;;;;;;;4.88;1.10;;;12.70;1.00;;;;;;5057883;28;20384;-52
2022/11/04 09:13:32;;;;;;;7.40;1.10;;;12.70;1.00;;;;;;5062653;28;20434;-52
2022/11/04 09:15:58;;;;;;;5.50;1.10;;;12.60;1.00;;;;;;5059246;28;20376;-51
2022/11/04 09:18:24;;;;;;;5.77;1.07;;;12.50;1.00;;;;;;5058745;28;20419;-50
2022/11/04 09:20:49;;;;;;;5.95;1.08;;;12.40;1.00;;;;;;5060708;28;20380;-51
2022/11/04 09:23:15;;;;;;;5.72;1.08;;;12.40;1.00;;;;;;5061526;28;20407;-51
2022/11/04 09:25:40;;;;;;;8.20;1.03;;;12.50;1.00;;;;;;5058432;28;20480;-54
2022/11/04 09:28:06;;;;;;;4.20;0.70;;;12.50;1.00;;;;;;5060739;28;20372;-51
2022/11/04 09:30:32;;;;;;;6.90;0.90;;;12.40;1.00;;;;;;5062028;28;20426;-51
2022/11/04 09:32:58;;;;;;;5.60;1.20;;;12.40;1.00;;;;;;5059570;28;21075;-51
2022/11/04 09:35:23;;;;;;;5.00;0.90;;;12.50;1.00;;;;;;5059251;28;20389;-52
2022/11/04 09:37:50;;;;;;;4.63;0.90;;;12.50;1.00;;;;;;5059694;28;20482;-51
2022/11/04 09:40:22;;;;;;;4.93;0.80;;;12.60;1.00;;;;;;5061009;28;20408;-52
2022/11/04 09:42:59;;;;;;;7.43;1.00;;;12.70;99.90;;;;;;5058691;28;20766;-51
2022/11/04 09:45:28;;;;;;;6.03;1.02;;;12.50;99.90;;;;;;5059204;28;20468;-53
2022/11/04 09:48:03;;;;;;;6.13;1.15;;;12.70;99.90;;;;;;5057366;28;20781;-51
2022/11/04 09:50:35;;;;;;;4.40;0.70;;;12.80;99.90;;;;;;5061516;28;20424;-51
2022/11/04 09:53:07;;;;;;;4.60;0.90;;;12.70;99.90;;;;;;5059903;28;20389;-51
2022/11/04 09:55:49;;;;;;;6.00;1.00;;;12.90;99.90;;;;;;5060465;28;20896;-52
2022/11/04 09:58:15;;;;;;;5.60;0.90;;;13.00;99.90;;;;;;5060523;28;20412;-52
2022/11/04 10:00:45;;;;;;;8.60;0.95;;;13.10;99.90;;;;;;5057909;28;20382;-54
2022/11/04 10:04:00;;;;;;;5.45;0.90;;;13.10;99.90;;;;;;5059756;28;20441;-51
2022/11/04 10:06:44;;;;;;;5.22;0.90;;;13.10;99.90;;;;;;4977372;28;20411;-52
2022/11/04 10:09:37;;;;;;;6.57;0.80;;;13.60;99.90;;;;;;5031588;28;20420;-52
2022/11/04 10:12:25;;;;;;;5.50;0.65;;;14.10;1.80;;;;;;5059720;28;20395;-52
2022/11/04 10:15:14;;;;;;;5.13;0.82;;;14.70;1.00;;;;;;5060688;28;20871;-51
2022/11/04 10:18:02;;;;;;;5.55;0.70;;;15.20;1.00;;;;;;5057573;28;20591;-55
2022/11/04 10:20:49;;;;;;;12.27;1.30;;;15.50;1.00;;;;;;5057816;28;20395;-54
2022/11/04 10:23:54;;;;;;;6.00;0.98;;;16.30;1.00;;;;;;5060049;28;20396;-54
2022/11/04 10:26:41;;;;;;;5.50;0.90;;;16.00;1.00;;;;;;5060819;28;20379;-54
2022/11/04 10:29:18;;;;;;;5.05;0.90;;;16.20;1.00;;;;;;5057479;28;20850;-54
2022/11/04 10:31:46;;;;;;;5.50;0.80;;;16.00;1.00;;;;;;5059331;28;20404;-54
2022/11/04 10:34:33;;;;;;;5.95;0.95;;;15.60;1.00;;;;;;5059246;28;20985;-53
2022/11/04 10:36:58;;;;;;;4.80;0.60;;;15.50;1.00;;;;;;5058738;28;21369;-54
2022/11/04 10:39:30;;;;;;;9.55;0.80;;;15.50;1.00;;;;;;5058008;28;20467;-54
2022/11/04 10:41:57;;;;;;;7.50;0.80;;;15.50;1.00;;;;;;5058898;28;20446;-52
2022/11/04 10:44:35;;;;;;;5.22;0.80;;;15.20;1.00;;;;;;5058042;28;20400;-53
2022/11/04 10:47:28;;;;;;;6.97;0.70;;;14.70;1.00;;;;;;5058188;28;20419;-52
2022/11/04 10:50:14;;;;;;;6.78;1.05;;;14.40;1.00;;;;;;5065109;28;20420;-51
2022/11/04 10:52:40;;;;;;;6.07;0.88;;;14.60;1.00;;;;;;5067350;28;20379;-54
2022/11/04 10:55:34;;;;;;;5.80;0.80;;;14.60;1.00;;;;;;5069143;28;20380;-52
2022/11/04 10:58:00;;;;;;;5.13;0.60;;;14.50;1.00;;;;;;5066220;28;20498;-51
2022/11/04 11:00:38;;;;;;;7.80;1.10;;;14.60;1.00;;;;;;5069198;28;20781;-52
2022/11/04 11:03:39;;;;;;;7.70;0.93;;;14.60;1.00;;;;;;5067610;28;20402;-52
2022/11/04 11:06:18;;;;;;;6.70;0.70;;;14.40;1.00;;;;;;5068617;28;20475;-52
2022/11/04 11:08:45;;;;;;;5.40;0.50;;;14.10;1.00;;;;;;5068894;28;20382;-52
2022/11/04 11:11:14;;;;;;;5.40;0.90;;;14.10;1.00;;;;;;5069880;28;20372;-52
2022/11/04 11:13:42;;;;;;;6.10;1.00;;;14.20;1.00;;;;;;5064193;28;20400;-54
2022/11/04 11:16:19;;;;;;;8.13;0.95;;;14.20;1.00;;;;;;5065813;28;20401;-52
2022/11/04 11:19:11;;;;;;;11.40;1.00;;;14.10;1.00;;;;;;5064042;28;20427;-52
2022/11/04 11:21:46;;;;;;;5.70;0.98;;;13.90;1.00;;;;;;5068628;28;20485;-52
2022/11/04 11:24:15;;;;;;;5.78;0.80;;;13.90;1.00;;;;;;5068891;28;20406;-53
2022/11/04 11:26:47;;;;;;;5.88;0.77;;;13.90;1.00;;;;;;5064118;28;20419;-54
2022/11/04 11:29:20;;;;;;;7.50;1.20;;;13.70;1.00;;;;;;5063960;28;20801;-51
2022/11/04 11:31:46;;;;;;;6.22;0.85;;;13.80;1.00;;;;;;5058116;28;20785;-52
2022/11/04 11:34:21;;;;;;;6.00;0.73;;;13.90;1.00;;;;;;5059109;28;20413;-52
2022/11/04 11:36:48;;;;;;;5.43;1.10;;;13.70;1.00;;;;;;5057408;28;20393;-51
2022/11/04 11:39:20;;;;;;;5.50;0.65;;;13.80;1.00;;;;;;5060191;28;20384;-52
2022/11/04 11:41:59;;;;;;;9.10;1.20;;;14.00;1.00;;;;;;5065066;28;20446;-51
2022/11/04 11:44:36;;;;;;;6.20;0.90;;;14.00;1.00;;;;;;5058099;28;20423;-52
2022/11/04 11:47:17;;;;;;;5.60;0.70;;;14.20;1.00;;;;;;5057083;28;20425;-54
2022/11/04 11:49:43;;;;;;;6.97;1.02;;;14.20;1.00;;;;;;5056193;28;20404;-53
2022/11/04 11:52:32;;;;;;;6.40;0.80;;;14.20;1.00;;;;;;5058443;28;20466;-52
2022/11/04 11:55:26;;;;;;;5.80;1.00;;;14.30;1.00;;;;;;5058339;28;20502;-52
2022/11/04 11:58:30;;;;;;;6.53;0.82;;;14.40;1.00;;;;;;5057585;28;20433;-52
2022/11/04 12:01:35;;;;;;;6.17;0.90;;;14.20;1.00;;;;;;5060836;28;20426;-52
2022/11/04 12:04:00;;;;;;;5.85;1.13;;;14.20;1.00;;;;;;5064755;28;20915;-53
2022/11/04 12:06:48;;;;;;;7.17;1.40;;;14.20;1.00;;;;;;5068359;28;20384;-52
2022/11/04 12:09:35;;;;;;;5.90;0.80;;;14.30;1.00;;;;;;5066630;28;20990;-52
2022/11/04 12:12:12;;;;;;;8.80;1.20;;;14.30;1.00;;;;;;5069825;28;20474;-52
2022/11/04 12:15:00;;;;;;;5.80;0.60;;;14.30;1.00;;;;;;5070264;28;20434;-52
2022/11/04 12:17:51;;;;;;;6.00;0.70;;;14.30;1.00;;;;;;5071237;28;20545;-53
2022/11/04 12:20:31;;;;;;;5.75;0.70;;;14.40;1.00;;;;;;5069720;28;20455;-52
2022/11/04 12:23:03;;;;;;;5.20;0.90;;;14.30;1.00;;;;;;5068995;28;20426;-53
2022/11/04 12:25:54;;;;;;;4.90;0.80;;;14.50;1.00;;;;;;5072289;28;20415;-53
2022/11/04 12:28:39;;;;;;;5.05;0.70;;;14.50;1.00;;;;;;5072139;28;20436;-52
2022/11/04 12:31:16;;;;;;;5.25;1.00;;;14.30;1.00;;;;;;5065512;28;20426;-53
2022/11/04 12:34:11;;;;;;;5.80;1.10;;;14.20;1.00;;;;;;5070010;28;20466;-55
2022/11/04 12:36:55;;;;;;;6.78;1.20;;;14.30;1.00;;;;;;5069441;28;20495;-53
2022/11/04 12:39:31;;;;;;;4.68;0.85;;;14.40;1.00;;;;;;5070176;28;20415;-53
2022/11/04 12:42:08;;;;;;;5.07;0.90;;;14.20;1.00;;;;;;5068367;28;20891;-53
2022/11/04 12:44:41;;;;;;;5.28;0.98;;;14.30;1.00;;;;;;5053996;28;20396;-53
2022/11/04 12:47:18;;;;;;;7.35;1.30;;;14.50;1.00;;;;;;5067963;28;20498;-53
2022/11/04 12:49:52;;;;;;;8.15;1.30;;;14.60;1.00;;;;;;5063053;28;20766;-53
2022/11/04 12:52:47;;;;;;;5.10;0.90;;;14.60;1.00;;;;;;5072356;28;20428;-53
2022/11/04 12:55:31;;;;;;;4.90;0.80;;;14.70;1.00;;;;;;5040594;28;20936;-54
2022/11/04 12:58:05;;;;;;;6.70;1.00;;;14.60;99.90;;;;;;5071326;28;20422;-53
2022/11/04 13:00:34;;;;;;;6.30;1.10;;;15.70;99.90;;;;;;5072178;28;20383;-53
2022/11/04 13:03:07;;;;;;;7.73;1.33;;;14.50;99.90;;;;;;5071226;28;20431;-53
2022/11/04 13:05:47;;;;;;;7.40;1.30;;;14.50;99.90;;;;;;5072309;28;20432;-53
2022/11/04 13:08:39;;;;;;;7.20;1.10;;;14.40;99.90;;;;;;5072274;28;20384;-53
2022/11/04 13:11:21;;;;;;;5.60;1.00;;;14.40;99.90;;;;;;5071761;28;20478;-53
2022/11/04 13:14:07;;;;;;;6.40;1.10;;;14.20;99.90;;;;;;5072102;28;20433;-53
2022/11/04 13:16:43;;;;;;;8.20;1.00;;;14.30;1.00;;;;;;5078782;28;20388;-53
2022/11/04 13:19:30;;;;;;;6.05;1.20;;;14.20;1.00;;;;;;5080009;28;20470;-53
2022/11/04 13:21:59;;;;;;;5.60;1.00;;;14.20;1.00;;;;;;5087358;28;20425;-53
2022/11/04 13:24:30;;;;;;;5.25;0.90;;;14.30;1.00;;;;;;5059501;28;21060;-54
2022/11/04 13:27:02;;;;;;;9.80;1.20;;;14.30;1.00;;;;;;5071407;28;20472;-53
2022/11/04 13:29:29;;;;;;;5.67;0.83;;;14.30;1.00;;;;;;5072455;28;20877;-53
2022/11/04 13:32:04;;;;;;;5.72;0.90;;;14.40;99.90;;;;;;5080932;28;20447;-53
2022/11/04 13:34:50;;;;;;;6.78;1.10;;;14.20;1.00;;;;;;5072721;28;20423;-53
2022/11/04 13:37:19;;;;;;;4.63;1.00;;;14.20;1.00;;;;;;5073088;28;20411;-52
2022/11/04 13:39:54;;;;;;;6.20;1.30;;;14.30;1.00;;;;;;5070427;28;20431;-53
2022/11/04 13:42:46;;;;;;;7.27;1.00;;;14.30;1.00;;;;;;5064350;28;20528;-53
2022/11/04 13:45:15;;;;;;;6.38;0.98;;;14.20;1.00;;;;;;5068699;28;20895;-53
2022/11/04 13:47:54;;;;;;;5.65;1.05;;;14.20;1.00;;;;;;5061611;28;20705;-56
2022/11/04 13:50:38;;;;;;;5.50;0.80;;;14.20;1.00;;;;;;5071624;28;20403;-52
2022/11/04 13:53:06;;;;;;;5.30;0.75;;;13.70;1.00;;;;;;5070245;28;20394;-50